Time;durP1;ratioP1;P1;durP2;ratioP2;P2;SDS_P1;SDS_P2;PMS_P1;PMS_P2;Temp;Humidity;BMP_temperature;BMP_pressure;BME280_temperature;BME280_humidity;BME280_pressure;Samples;Min_cycle;Max_cycle;Signal;HPM_P1;HPM_P2
2022/02/23 00:00:07;;;;;;;15.60;4.27;;;;;;;6.03;61.43;99867.63;6157145;22;97458;-86
2022/02/23 00:02:32;;;;;;;15.03;4.83;;;;;;;6.16;61.26;99876.00;6132791;22;100340;-84
2022/02/23 00:04:58;;;;;;;13.03;4.97;;;;;;;6.02;61.66;99875.47;6133519;22;96625;-84
2022/02/23 00:07:24;;;;;;;15.00;5.10;;;;;;;5.99;61.68;99852.09;6132583;22;96876;-85
2022/02/23 00:09:49;;;;;;;15.80;5.43;;;;;;;6.01;61.46;99850.31;6156677;22;97279;-84
2022/02/23 00:12:15;;;;;;;10.27;4.20;;;;;;;6.08;61.55;99870.13;6106525;22;101412;-85
2022/02/23 00:14:41;;;;;;;11.20;4.67;;;;;;;6.11;61.74;99867.47;6132394;22;96525;-85
2022/02/23 00:17:07;;;;;;;15.23;5.30;;;;;;;5.98;62.32;99853.84;6108620;22;97075;-85
2022/02/23 00:19:32;;;;;;;16.33;4.63;;;;;;;6.08;62.66;99862.31;6133993;22;101708;-85
2022/02/23 00:21:58;;;;;;;10.63;3.93;;;;;;;6.10;63.48;99863.13;6158839;22;96751;-84
2022/02/23 00:24:23;;;;;;;13.77;4.00;;;;;;;6.10;63.56;99861.38;6108303;22;96669;-85
2022/02/23 00:26:49;;;;;;;14.50;4.13;;;;;;;6.03;64.02;99846.78;6109209;22;96811;-86
2022/02/23 00:29:15;;;;;;;13.93;4.60;;;;;;;6.05;64.54;99852.81;6131636;22;100018;-85
2022/02/23 00:31:41;;;;;;;13.50;4.73;;;;;;;5.97;64.77;99828.69;6133869;22;97941;-85
2022/02/23 00:34:06;;;;;;;12.90;4.47;;;;;;;6.11;64.83;99842.25;6133404;22;96568;-85
2022/02/23 00:36:32;;;;;;;16.90;4.90;;;;;;;5.82;65.12;99811.63;6109657;22;96789;-84
2022/02/23 00:38:57;;;;;;;14.30;4.67;;;;;;;6.06;65.45;99845.84;6132842;22;97377;-84
2022/02/23 00:41:23;;;;;;;12.83;4.10;;;;;;;5.59;65.38;99778.28;6132098;22;100985;-85
2022/02/23 00:43:48;;;;;;;14.93;4.60;;;;;;;6.01;65.84;99845.94;6108668;22;96640;-84
2022/02/23 00:46:14;;;;;;;9.03;3.43;;;;;;;6.01;66.32;99845.09;6133921;22;96856;-85
2022/02/23 00:48:40;;;;;;;10.20;4.17;;;;;;;5.93;66.55;99831.34;6109140;22;101427;-85
2022/02/23 00:51:06;;;;;;;16.13;4.60;;;;;;;6.06;66.19;99831.06;6133501;22;101030;-84
2022/02/23 00:53:31;;;;;;;10.93;3.50;;;;;;;6.12;66.64;99851.78;6158964;22;97166;-85
2022/02/23 00:55:57;;;;;;;24.77;5.67;;;;;;;6.15;66.33;99835.22;6133644;22;96961;-84
2022/02/23 00:58:22;;;;;;;15.80;4.60;;;;;;;6.23;66.72;99835.91;6132198;22;101395;-84
2022/02/23 01:00:48;;;;;;;12.80;3.90;;;;;;;6.28;66.30;99843.59;6133084;22;97756;-83
2022/02/23 01:03:14;;;;;;;13.20;4.53;;;;;;;6.34;66.79;99838.22;6133539;22;97041;-85
2022/02/23 01:05:40;;;;;;;8.63;3.40;;;;;;;6.23;67.40;99835.91;6159868;22;96977;-84
2022/02/23 01:08:06;;;;;;;10.87;3.57;;;;;;;6.24;67.39;99827.16;6132240;22;101496;-83
2022/02/23 01:10:32;;;;;;;9.90;3.03;;;;;;;6.31;67.51;99822.66;6133014;22;97945;-86
2022/02/23 01:12:58;;;;;;;7.40;3.43;;;;;;;6.20;67.52;99812.50;6133467;22;97281;-84
2022/02/23 01:15:26;;;;;;;11.27;4.63;;;;;;;6.29;67.98;99822.72;6133469;22;97371;-85
2022/02/23 01:17:52;;;;;;;12.63;3.47;;;;;;;6.23;68.37;99808.97;6158896;22;97930;-85
2022/02/23 01:20:18;;;;;;;7.03;3.03;;;;;;;6.30;68.24;99811.38;6157605;22;98031;-85
2022/02/23 01:22:43;;;;;;;8.90;3.40;;;;;;;6.33;68.39;99803.47;6108903;22;96471;-84
2022/02/23 01:25:09;;;;;;;8.60;3.30;;;;;;;6.30;68.81;99798.34;6132515;22;96826;-84
2022/02/23 01:27:35;;;;;;;7.57;2.63;;;;;;;6.20;68.44;99781.22;6132871;22;97341;-84
2022/02/23 01:30:02;;;;;;;7.00;3.00;;;;;;;6.33;68.33;99784.38;6132922;22;98080;-85
2022/02/23 01:32:28;;;;;;;5.37;2.67;;;;;;;6.32;68.92;99774.84;6107500;22;97171;-85
2022/02/23 01:34:54;;;;;;;7.77;3.10;;;;;;;6.23;69.01;99760.31;6109373;22;96720;-85
2022/02/23 01:37:20;;;;;;;11.27;2.67;;;;;;;6.28;68.98;99762.78;6132805;22;100405;-83
2022/02/23 01:39:45;;;;;;;11.73;3.57;;;;;;;6.32;69.34;99785.28;6158440;22;97692;-84
2022/02/23 01:42:11;;;;;;;10.07;2.97;;;;;;;6.28;69.56;99784.50;6132582;22;96564;-84
2022/02/23 01:44:37;;;;;;;5.63;2.53;;;;;;;6.31;69.53;99791.38;6159207;22;96703;-85
2022/02/23 01:47:03;;;;;;;8.37;2.77;;;;;;;6.28;69.85;99802.75;6133609;22;100095;-84
2022/02/23 01:49:28;;;;;;;4.13;2.20;;;;;;;6.25;69.62;99783.72;6132954;22;101246;-85
2022/02/23 01:51:54;;;;;;;5.83;2.53;;;;;;;6.38;69.82;99795.56;6134690;22;96568;-85
2022/02/23 01:54:20;;;;;;;4.40;2.47;;;;;;;6.13;70.34;99769.22;6111193;22;97275;-85
2022/02/23 01:56:45;;;;;;;4.87;2.33;;;;;;;6.25;70.22;99796.75;6149628;22;97843;-83
2022/02/23 01:59:12;;;;;;;4.17;2.30;;;;;;;6.26;70.51;99799.31;6125493;22;99841;-84
2022/02/23 02:01:37;;;;;;;3.37;2.07;;;;;;;6.32;70.43;99804.38;6134393;22;96966;-84
2022/02/23 02:04:03;;;;;;;4.27;1.90;;;;;;;6.33;70.06;99800.03;6134556;22;96795;-83
2022/02/23 02:06:29;;;;;;;4.87;2.10;;;;;;;6.35;70.24;99808.66;6108313;22;99964;-84
2022/02/23 02:08:54;;;;;;;5.07;1.70;;;;;;;6.34;70.33;99807.81;6107962;22;100129;-84
2022/02/23 02:11:20;;;;;;;5.23;2.13;;;;;;;6.34;70.26;99813.03;6132466;22;97333;-84
2022/02/23 02:13:45;;;;;;;4.10;1.87;;;;;;;6.39;69.92;99812.91;6108804;22;96813;-84
2022/02/23 02:16:11;;;;;;;3.57;1.97;;;;;;;6.43;70.06;99826.72;6108207;22;101626;-84
2022/02/23 02:18:36;;;;;;;4.37;1.97;;;;;;;6.33;70.11;99816.50;6133706;22;101896;-84
2022/02/23 02:21:02;;;;;;;4.10;2.00;;;;;;;6.45;70.02;99838.81;6134460;22;96980;-83
2022/02/23 02:23:28;;;;;;;5.30;1.70;;;;;;;6.35;69.99;99827.78;6132896;22;97172;-84
2022/02/23 02:25:53;;;;;;;4.87;1.90;;;;;;;6.41;70.06;99829.38;6132763;22;100894;-84
2022/02/23 02:28:19;;;;;;;2.90;1.57;;;;;;;6.38;69.50;99816.41;6132020;22;101003;-84
2022/02/23 02:30:45;;;;;;;4.23;1.90;;;;;;;6.47;69.58;99826.59;6133714;22;96590;-82
2022/02/23 02:33:10;;;;;;;5.47;1.90;;;;;;;6.51;70.00;99829.97;6133653;22;96934;-83
2022/02/23 02:35:36;;;;;;;2.80;1.60;;;;;;;6.50;69.66;99823.06;6132684;22;101315;-83
2022/02/23 02:38:03;;;;;;;3.83;1.80;;;;;;;6.46;69.68;99837.09;6132717;22;97999;-83
2022/02/23 02:40:30;;;;;;;2.73;1.80;;;;;;;6.49;70.07;99837.88;6131771;22;96655;-84
2022/02/23 02:42:56;;;;;;;4.30;1.50;;;;;;;6.47;70.34;99841.41;6133091;22;96746;-83
2022/02/23 02:45:23;;;;;;;2.03;1.30;;;;;;;6.43;70.21;99834.53;6132536;22;101270;-84
2022/02/23 02:47:48;;;;;;;3.43;1.47;;;;;;;6.49;70.45;99845.69;6133252;22;100315;-84
2022/02/23 02:50:14;;;;;;;2.13;1.30;;;;;;;6.54;70.26;99848.16;6133652;22;96519;-85
2022/02/23 02:52:40;;;;;;;3.83;1.50;;;;;;;6.56;70.07;99855.06;6133521;22;96990;-84
2022/02/23 02:55:06;;;;;;;2.23;1.40;;;;;;;6.52;70.18;99850.81;6132776;22;97839;-84
2022/02/23 02:57:32;;;;;;;4.27;1.70;;;;;;;6.57;70.50;99864.63;6131869;22;97975;-83
2022/02/23 02:59:57;;;;;;;2.83;1.60;;;;;;;6.58;70.99;99848.06;6157798;22;96936;-84
2022/02/23 03:02:23;;;;;;;2.57;1.57;;;;;;;6.59;71.00;99859.34;6133114;22;97109;-84
2022/02/23 03:04:48;;;;;;;2.77;1.57;;;;;;;6.64;70.83;99864.47;6133513;22;101156;-84
2022/02/23 03:07:15;;;;;;;2.93;1.30;;;;;;;6.64;71.44;99867.91;6132300;22;100084;-84
2022/02/23 03:09:41;;;;;;;3.77;1.57;;;;;;;6.67;71.27;99872.19;6133150;22;96836;-84
2022/02/23 03:12:07;;;;;;;4.27;1.37;;;;;;;6.68;71.82;99874.75;6158061;22;97043;-84
2022/02/23 03:14:33;;;;;;;3.30;1.40;;;;;;;6.69;71.55;99868.66;6106945;22;101718;-84
2022/02/23 03:16:58;;;;;;;6.33;1.53;;;;;;;6.79;71.64;99883.16;6133406;22;101002;-84
2022/02/23 03:19:24;;;;;;;7.17;1.47;;;;;;;6.80;71.25;99879.66;6133352;22;96930;-85
2022/02/23 03:21:49;;;;;;;5.30;1.50;;;;;;;6.76;71.33;99875.44;6133126;22;97110;-84
2022/02/23 03:24:15;;;;;;;4.03;1.50;;;;;;;6.79;71.57;99896.22;6106867;22;101185;-84
2022/02/23 03:26:41;;;;;;;3.90;1.43;;;;;;;6.84;71.47;99897.88;6132290;22;100847;-83
2022/02/23 03:29:06;;;;;;;2.43;1.20;;;;;;;6.79;71.31;99901.44;6132619;22;97118;-84
2022/02/23 03:31:32;;;;;;;4.53;1.30;;;;;;;6.80;71.17;99918.78;6133125;22;97514;-84
2022/02/23 03:33:58;;;;;;;3.60;1.20;;;;;;;6.80;71.61;99921.41;6133094;22;97363;-84
2022/02/23 03:36:23;;;;;;;4.33;1.40;;;;;;;6.83;71.02;99917.84;6132068;22;99906;-84
2022/02/23 03:38:49;;;;;;;4.17;1.40;;;;;;;6.84;71.37;99921.34;6133526;22;96566;-84
2022/02/23 03:41:15;;;;;;;5.47;1.53;;;;;;;6.91;70.58;99933.34;6108063;22;96790;-84
2022/02/23 03:43:41;;;;;;;9.13;1.83;;;;;;;6.88;69.82;99949.91;6132146;22;98359;-84
2022/02/23 03:46:07;;;;;;;3.57;1.33;;;;;;;6.90;69.14;99955.97;6133360;22;96995;-84
2022/02/23 03:48:33;;;;;;;8.83;1.57;;;;;;;6.80;67.31;99957.91;6131902;22;97044;-84
2022/02/23 03:50:59;;;;;;;9.17;2.07;;;;;;;6.84;67.29;99978.75;6133251;22;96731;-84
2022/02/23 03:53:25;;;;;;;8.53;1.93;;;;;;;6.87;66.85;99976.06;6106412;22;100417;-84
2022/02/23 03:55:50;;;;;;;9.60;2.20;;;;;;;6.88;66.49;99970.78;6106864;22;100385;-83
2022/02/23 03:58:16;;;;;;;6.70;1.70;;;;;;;6.72;66.55;99959.00;6106782;22;97157;-84
2022/02/23 04:00:42;;;;;;;9.23;2.57;;;;;;;6.85;66.25;99990.88;6133083;22;96764;-86
2022/02/23 04:03:08;;;;;;;10.60;2.07;;;;;;;6.80;66.23;99993.59;6133009;22;98052;-86
2022/02/23 04:05:34;;;;;;;9.37;1.93;;;;;;;6.78;65.91;99988.44;6132141;22;101520;-84
2022/02/23 04:07:59;;;;;;;14.03;3.57;;;;;;;6.76;66.26;99992.81;6158049;22;96642;-84
2022/02/23 04:10:25;;;;;;;12.67;2.27;;;;;;;6.79;66.11;100004.94;6156761;22;97161;-84
2022/02/23 04:12:51;;;;;;;8.90;1.90;;;;;;;6.77;66.33;100012.78;6156187;22;100470;-84
2022/02/23 04:15:17;;;;;;;10.07;1.93;;;;;;;6.80;65.90;100017.94;6106217;22;101426;-84
2022/02/23 04:17:42;;;;;;;13.03;2.43;;;;;;;6.86;66.00;100034.34;6133302;22;96806;-84
2022/02/23 04:20:08;;;;;;;11.77;2.73;;;;;;;6.85;66.02;100030.03;6108327;22;96945;-84
2022/02/23 04:22:35;;;;;;;11.97;2.30;;;;;;;6.80;65.97;100030.97;6107042;22;101274;-84
2022/02/23 04:25:01;;;;;;;13.13;2.93;;;;;;;6.81;65.55;100044.91;6131454;22;100119;-83
2022/02/23 04:27:26;;;;;;;9.27;2.17;;;;;;;6.82;65.69;100040.53;6106322;22;96648;-85
2022/02/23 04:29:52;;;;;;;12.83;2.33;;;;;;;6.73;65.72;100049.44;6132321;22;96679;-84
2022/02/23 04:32:17;;;;;;;11.53;1.97;;;;;;;6.82;64.98;100056.19;6131943;22;98248;-83
2022/02/23 04:34:43;;;;;;;10.43;2.40;;;;;;;6.83;64.95;100076.16;6132537;22;101482;-84
2022/02/23 04:37:08;;;;;;;12.57;3.87;;;;;;;6.80;64.86;100074.47;6132247;22;97262;-84
2022/02/23 04:39:34;;;;;;;15.10;3.00;;;;;;;6.81;65.40;100076.22;6106814;22;97422;-83
2022/02/23 04:42:01;;;;;;;14.57;3.20;;;;;;;6.67;65.19;100054.78;6106659;22;101698;-84
2022/02/23 04:44:27;;;;;;;12.43;2.47;;;;;;;6.80;65.38;100084.91;6131357;22;97883;-84
2022/02/23 04:46:53;;;;;;;12.60;2.80;;;;;;;6.76;65.24;100091.09;6132351;22;96515;-84
2022/02/23 04:49:19;;;;;;;10.27;2.43;;;;;;;6.81;65.76;100097.09;6131018;22;96768;-84
2022/02/23 04:51:44;;;;;;;14.60;2.53;;;;;;;6.88;65.56;100116.06;6131337;22;101135;-84
2022/02/23 04:54:10;;;;;;;8.00;3.00;;;;;;;6.83;65.48;100112.69;6131724;22;100250;-84
2022/02/23 04:56:36;;;;;;;8.67;2.43;;;;;;;6.82;65.46;100105.75;6130902;22;96586;-84
2022/02/23 04:59:02;;;;;;;11.60;2.20;;;;;;;6.86;65.35;100117.84;6132001;22;96780;-84
2022/02/23 05:01:27;;;;;;;12.57;3.13;;;;;;;6.79;64.94;100123.19;6131176;22;97961;-85
2022/02/23 05:03:53;;;;;;;12.90;3.10;;;;;;;6.82;65.07;100139.69;6133482;22;101220;-83
2022/02/23 05:06:19;;;;;;;15.50;3.08;;;;;;;6.73;65.18;100125.09;6108883;22;96563;-83
2022/02/23 05:08:44;;;;;;;10.67;2.73;;;;;;;6.87;64.57;100143.91;6133722;22;96786;-84
2022/02/23 05:11:10;;;;;;;11.50;2.40;;;;;;;6.70;64.48;100133.84;6108160;22;101131;-84
2022/02/23 05:13:35;;;;;;;17.17;3.03;;;;;;;6.86;65.10;100156.97;6157139;22;100927;-84
2022/02/23 05:16:02;;;;;;;13.20;3.13;;;;;;;6.85;64.92;100161.34;6133769;22;96627;-84
2022/02/23 05:18:29;;;;;;;13.10;2.63;;;;;;;6.83;64.54;100151.81;6158971;22;96927;-84
2022/02/23 05:20:58;;;;;;;9.77;2.50;;;;;;;6.85;64.64;100166.56;6133466;22;97912;-84
2022/02/23 05:23:24;;;;;;;14.03;2.80;;;;;;;6.80;64.82;100160.56;6107478;22;101702;-86
2022/02/23 05:25:50;;;;;;;21.57;3.40;;;;;;;6.82;64.70;100177.06;6133313;22;97188;-84
2022/02/23 05:28:17;;;;;;;13.60;2.83;;;;;;;6.78;64.64;100170.22;6132633;22;96917;-82
2022/02/23 05:30:42;;;;;;;13.07;2.90;;;;;;;6.85;64.50;100179.59;6133207;22;101609;-84
2022/02/23 05:33:08;;;;;;;14.73;2.70;;;;;;;6.90;64.48;100189.97;6134257;22;101313;-84
2022/02/23 05:35:34;;;;;;;19.47;3.30;;;;;;;6.87;63.93;100195.25;6119367;22;96549;-85
2022/02/23 05:38:00;;;;;;;16.23;3.57;;;;;;;6.79;63.73;100198.00;6134138;22;96661;-84
2022/02/23 05:40:25;;;;;;;17.13;3.73;;;;;;;6.65;64.20;100187.00;6144228;22;99528;-83
2022/02/23 05:42:51;;;;;;;12.33;2.63;;;;;;;6.73;64.04;100209.41;6168948;22;101570;-85
2022/02/23 05:45:17;;;;;;;16.57;3.80;;;;;;;6.66;64.25;100204.34;6133591;22;96652;-82
2022/02/23 05:47:42;;;;;;;22.53;4.50;;;;;;;6.72;63.81;100222.47;6133885;22;96825;-84
2022/02/23 05:50:08;;;;;;;11.63;3.03;;;;;;;6.67;63.58;100230.41;6108886;22;101096;-83
2022/02/23 05:52:34;;;;;;;10.90;2.77;;;;;;;6.67;63.38;100238.25;6132068;22;100180;-85
2022/02/23 05:55:00;;;;;;;22.53;5.03;;;;;;;6.67;63.65;100232.16;6133640;22;96724;-85
2022/02/23 05:57:25;;;;;;;15.13;3.00;;;;;;;6.68;63.26;100231.28;6132153;22;96633;-84
2022/02/23 05:59:51;;;;;;;14.67;2.97;;;;;;;6.58;63.38;100218.41;6133535;22;96720;-84
2022/02/23 06:02:17;;;;;;;18.37;3.67;;;;;;;6.60;63.15;100223.59;6108184;22;99577;-83
2022/02/23 06:04:42;;;;;;;14.93;3.23;;;;;;;6.67;62.89;100251.28;6108681;22;96663;-84
2022/02/23 06:07:08;;;;;;;14.43;4.23;;;;;;;6.68;62.59;100244.31;6109083;22;97412;-84
2022/02/23 06:09:34;;;;;;;17.33;4.47;;;;;;;6.73;62.77;100261.59;6131686;22;100980;-85
2022/02/23 06:12:00;;;;;;;14.57;3.13;;;;;;;6.58;62.61;100246.25;6132431;22;96945;-84
2022/02/23 06:14:26;;;;;;;14.40;3.47;;;;;;;6.63;62.56;100267.00;6106875;22;96564;-84
2022/02/23 06:16:52;;;;;;;19.37;3.47;;;;;;;6.67;62.50;100273.91;6109188;22;96655;-85
2022/02/23 06:19:17;;;;;;;14.13;2.70;;;;;;;6.69;62.22;100290.38;6108366;22;100478;-82
2022/02/23 06:21:43;;;;;;;11.77;2.83;;;;;;;6.64;62.42;100287.88;6157859;22;98819;-84
2022/02/23 06:24:08;;;;;;;19.10;4.33;;;;;;;6.72;62.35;100298.13;6133107;22;96878;-85
2022/02/23 06:26:34;;;;;;;14.47;2.87;;;;;;;6.77;61.77;100312.81;6132326;22;96955;-85
2022/02/23 06:29:00;;;;;;;12.70;2.97;;;;;;;6.74;61.73;100309.41;6132268;22;101461;-84
2022/02/23 06:31:25;;;;;;;19.43;4.17;;;;;;;6.73;62.00;100310.31;6132707;22;101251;-83
2022/02/23 06:33:51;;;;;;;14.10;3.50;;;;;;;6.77;61.83;100331.09;6133890;22;96626;-85
2022/02/23 06:36:17;;;;;;;13.37;2.33;;;;;;;6.82;61.71;100338.84;6133774;22;96835;-85
2022/02/23 06:38:44;;;;;;;17.47;3.83;;;;;;;6.87;62.10;100351.81;6132622;22;101152;-86
2022/02/23 06:41:13;;;;;;;17.70;3.50;;;;;;;6.74;61.75;100340.72;6132031;22;101235;-84
2022/02/23 06:43:39;;;;;;;10.30;3.07;;;;;;;6.74;61.67;100340.72;6132226;22;97182;-84
2022/02/23 06:46:06;;;;;;;19.43;3.80;;;;;;;6.86;61.48;100373.56;6108975;22;96822;-85
2022/02/23 06:48:32;;;;;;;16.27;3.33;;;;;;;6.91;61.76;100369.97;6107284;22;101588;-85
2022/02/23 06:50:58;;;;;;;13.27;2.93;;;;;;;7.00;61.59;100389.81;6158012;22;101265;-85
2022/02/23 06:53:24;;;;;;;22.70;3.83;;;;;;;7.12;61.27;100391.34;6131832;22;97053;-85
2022/02/23 06:55:50;;;;;;;14.60;3.40;;;;;;;7.19;61.23;100383.38;6158283;22;96683;-85
2022/02/23 06:58:16;;;;;;;19.07;3.60;;;;;;;7.33;60.96;100397.91;6133217;22;97506;-84
2022/02/23 07:00:42;;;;;;;9.43;2.80;;;;;;;7.52;60.58;100406.25;6132804;22;97729;-85
2022/02/23 07:03:08;;;;;;;10.93;3.13;;;;;;;7.57;60.27;100407.88;6132923;22;96669;-84
2022/02/23 07:05:34;;;;;;;14.27;3.23;;;;;;;7.49;60.78;100392.34;6107958;22;97301;-85
2022/02/23 07:08:02;;;;;;;17.80;3.33;;;;;;;7.59;60.34;100421.78;6133194;22;101615;-84
2022/02/23 07:10:30;;;;;;;15.73;3.37;;;;;;;7.52;60.33;100408.88;6131842;22;101856;-84
2022/02/23 07:12:56;;;;;;;17.80;3.03;;;;;;;7.64;59.79;100432.13;6107597;22;96809;-84
2022/02/23 07:15:24;;;;;;;16.90;3.50;;;;;;;7.81;59.80;100440.47;6106881;22;96780;-82
2022/02/23 07:17:49;;;;;;;13.00;4.07;;;;;;;8.08;59.58;100440.78;6131852;22;97170;-84
2022/02/23 07:20:16;;;;;;;17.63;3.37;;;;;;;8.49;58.70;100439.00;6106999;22;100456;-85
2022/02/23 07:22:42;;;;;;;11.00;3.90;;;;;;;8.76;57.75;100451.47;6132261;22;96764;-84
2022/02/23 07:25:09;;;;;;;12.18;2.60;;;;;;;8.99;56.93;100447.41;6107742;22;96767;-83
2022/02/23 07:27:35;;;;;;;12.80;2.75;;;;;;;9.30;56.38;100448.31;6131833;22;100353;-84
2022/02/23 07:30:03;;;;;;;12.60;3.22;;;;;;;9.33;56.20;100439.50;6133010;22;97772;-84
2022/02/23 07:32:32;;;;;;;16.70;3.08;;;;;;;9.13;56.30;100460.13;6184029;22;97227;-83
2022/02/23 07:35:03;;;;;;;13.90;3.33;;;;;;;8.91;56.66;100465.91;6109293;22;97013;-84
2022/02/23 07:37:28;;;;;;;11.57;2.77;;;;;;;8.63;57.12;100468.34;6132145;22;97362;-84
2022/02/23 07:39:56;;;;;;;17.70;3.00;;;;;;;8.33;57.57;100451.56;6131643;22;101605;-82
2022/02/23 07:42:23;;;;;;;11.13;2.92;;;;;;;8.43;58.29;100488.88;6105946;22;97112;-82
2022/02/23 07:44:49;;;;;;;11.00;2.80;;;;;;;8.55;57.76;100491.19;6132598;22;97294;-84
2022/02/23 07:47:15;;;;;;;12.23;3.67;;;;;;;8.54;57.87;100497.34;6129871;22;101221;-83
2022/02/23 07:49:41;;;;;;;12.13;2.83;;;;;;;8.53;58.50;100496.47;6130770;22;100430;-85
2022/02/23 07:52:07;;;;;;;19.95;3.60;;;;;;;8.44;58.68;100488.00;6130994;22;96605;-84
2022/02/23 07:54:33;;;;;;;11.55;3.20;;;;;;;8.37;59.39;100477.59;6130003;22;97170;-83
2022/02/23 07:56:59;;;;;;;12.02;3.08;;;;;;;8.83;57.92;100499.28;6129788;22;101156;-84
2022/02/23 07:59:25;;;;;;;10.95;3.17;;;;;;;9.04;58.05;100498.75;6129762;22;101537;-84
2022/02/23 08:01:50;;;;;;;14.38;3.10;;;;;;;9.24;57.45;100494.75;6106099;22;97186;-84
2022/02/23 08:04:16;;;;;;;17.55;3.45;;;;;;;9.80;56.63;100507.25;6105793;22;97154;-82
2022/02/23 08:06:42;;;;;;;14.70;3.53;;;;;;;10.07;55.32;100497.75;6129373;22;101404;-85
2022/02/23 08:09:09;;;;;;;16.05;3.58;;;;;;;10.57;54.21;100490.16;6129790;22;101351;-78
2022/02/23 08:11:36;;;;;;;15.80;4.28;;;;;;;11.14;53.28;100497.06;6130626;22;97136;-79
2022/02/23 08:14:04;;;;;;;11.13;2.67;;;;;;;11.63;51.93;100503.22;6131404;22;97040;-85
2022/02/23 08:19:31;;;;;;;14.63;2.78;;;;;;;12.42;50.45;100514.38;6130932;22;101433;-85
2022/02/23 08:22:03;;;;;;;;;;;;;;;12.66;48.58;100508.16;6131147;22;96848;-84
2022/02/23 08:24:29;;;;;;;9.07;3.10;;;;;;;13.09;48.51;100509.06;6130521;22;96874;-84
2022/02/23 08:26:55;;;;;;;8.95;2.97;;;;;;;13.36;48.49;100516.78;6129009;22;102179;-85
2022/02/23 08:29:22;;;;;;;8.65;2.50;;;;;;;13.52;47.09;100527.50;6129332;22;98322;-81
2022/02/23 08:31:47;;;;;;;13.93;2.78;;;;;;;13.87;46.68;100525.13;6153362;22;96718;-82
2022/02/23 08:34:13;;;;;;;11.18;3.40;;;;;;;14.11;45.84;100508.19;6128841;22;96789;-76
2022/02/23 08:36:38;;;;;;;11.50;3.33;;;;;;;14.38;45.42;100521.91;6126350;22;97437;-92
2022/02/23 08:39:06;;;;;;;8.35;3.03;;;;;;;14.61;45.06;100541.97;6133000;22;97899;-88
2022/02/23 08:41:33;;;;;;;10.95;2.72;;;;;;;13.94;45.46;100543.25;6133691;22;98487;-89
2022/02/23 08:44:00;;;;;;;11.73;2.78;;;;;;;13.99;44.59;100528.09;6155465;22;96764;-78
2022/02/23 08:46:26;;;;;;;11.27;3.00;;;;;;;14.13;44.68;100545.91;6128671;22;101149;-77
2022/02/23 08:48:52;;;;;;;11.10;3.03;;;;;;;14.24;44.40;100537.50;6129201;22;101491;-77
2022/02/23 08:51:18;;;;;;;11.00;3.13;;;;;;;13.76;45.85;100555.47;6130343;22;97393;-78
2022/02/23 08:53:43;;;;;;;9.88;2.97;;;;;;;13.84;45.13;100533.16;6130148;22;97383;-80
2022/02/23 08:56:09;;;;;;;12.10;2.97;;;;;;;14.78;43.97;100564.13;6155260;22;97574;-80
2022/02/23 08:58:35;;;;;;;10.20;3.20;;;;;;;15.21;42.94;100554.94;6105405;22;101721;-79
2022/02/23 09:01:00;;;;;;;9.60;3.15;;;;;;;14.72;43.74;100546.78;6156891;22;96736;-79
2022/02/23 09:03:26;;;;;;;11.65;2.92;;;;;;;15.63;42.12;100559.00;6133231;22;97356;-87
2022/02/23 09:05:51;;;;;;;12.95;3.20;;;;;;;16.17;41.06;100569.47;6157185;22;101399;-88
2022/02/23 09:08:17;;;;;;;14.45;3.20;;;;;;;16.55;40.33;100564.75;6131216;22;100787;-87
2022/02/23 09:10:43;;;;;;;12.95;3.40;;;;;;;17.23;39.29;100569.78;6132795;22;96676;-90
2022/02/23 09:13:08;;;;;;;15.10;3.42;;;;;;;17.17;39.14;100567.50;6132700;22;96952;-89
2022/02/23 09:15:34;;;;;;;8.85;2.78;;;;;;;15.97;40.34;100575.81;6156653;22;96895;-88
2022/02/23 09:18:01;;;;;;;12.50;3.67;;;;;;;15.13;41.47;100584.41;6131719;22;100220;-80
2022/02/23 09:20:28;;;;;;;14.80;3.75;;;;;;;14.98;42.64;100594.84;6132911;22;96673;-79
2022/02/23 09:22:54;;;;;;;16.15;3.28;;;;;;;14.37;42.73;100588.84;6133317;22;97358;-78
2022/02/23 09:25:20;;;;;;;13.55;3.50;;;;;;;13.98;44.31;100588.84;6158026;22;101297;-84
2022/02/23 09:27:45;;;;;;;11.20;3.15;;;;;;;14.85;42.72;100595.44;6133320;22;100811;-78
2022/02/23 09:30:14;;;;;;;7.80;3.30;;;;;;;14.26;43.66;100599.03;6133248;22;96612;-80
2022/02/23 09:32:41;;;;;;;12.15;3.38;;;;;;;13.59;44.06;100608.09;6109913;22;97945;-81
2022/02/23 09:35:09;;;;;;;12.93;2.78;;;;;;;13.31;44.46;100616.28;6108143;22;101189;-85
2022/02/23 09:37:35;;;;;;;10.77;3.35;;;;;;;12.98;45.12;100595.59;6133951;22;97345;-82
2022/02/23 09:40:01;;;;;;;17.55;3.33;;;;;;;13.75;44.10;100611.78;6138852;22;97095;-85
2022/02/23 09:42:28;;;;;;;8.85;2.85;;;;;;;13.16;44.25;100598.44;6158999;22;97557;-82
2022/02/23 09:44:59;;;;;;;10.57;3.05;;;;;;;12.75;44.40;100593.88;6132661;22;101632;-87
2022/02/23 09:47:26;;;;;;;13.65;3.42;;;;;;;13.34;43.91;100614.38;6133461;22;98283;-89
2022/02/23 09:49:55;;;;;;;8.90;2.83;;;;;;;14.09;43.15;100618.25;6156378;22;96879;-89
2022/02/23 09:52:24;;;;;;;13.40;3.38;;;;;;;14.92;41.39;100596.88;6130828;22;97283;-85
2022/02/23 09:54:51;;;;;;;11.65;2.97;;;;;;;15.75;40.05;100613.13;6127924;22;101256;-86
2022/02/23 09:57:17;;;;;;;18.65;2.90;;;;;;;15.84;40.06;100607.38;6156576;22;97792;-86
2022/02/23 09:59:43;;;;;;;11.80;3.33;;;;;;;16.83;38.59;100606.50;6132090;22;96672;-86
2022/02/23 10:02:12;;;;;;;11.35;2.70;;;;;;;16.51;38.45;100617.03;6107690;22;96899;-88
2022/02/23 10:04:38;;;;;;;9.50;2.80;;;;;;;16.57;38.65;100615.88;6130713;22;97383;-85
2022/02/23 10:07:06;;;;;;;12.00;2.55;;;;;;;16.39;38.28;100591.22;6131574;22;97560;-85
2022/02/23 10:09:52;;;;;;;10.43;3.08;;;;;;;16.49;38.75;100595.09;6130085;22;97247;-85
2022/02/23 10:12:19;;;;;;;11.00;2.78;;;;;;;17.63;37.34;100594.84;6155540;22;96740;-89
2022/02/23 10:14:46;;;;;;;13.25;3.25;;;;;;;17.31;37.56;100614.47;6106137;22;101539;-86
2022/02/23 10:17:12;;;;;;;11.50;3.10;;;;;;;16.38;37.96;100600.13;6131509;22;101413;-86
2022/02/23 10:19:54;;;;;;;9.15;3.10;;;;;;;16.45;38.32;100643.88;6157129;22;97286;-86
2022/02/23 10:22:21;;;;;;;10.48;3.85;;;;;;;16.30;37.92;100615.56;6130651;22;96740;-89
2022/02/23 10:24:47;;;;;;;10.52;2.92;;;;;;;16.05;37.67;100611.53;6155646;22;100707;-89
2022/02/23 10:27:15;;;;;;;8.13;2.50;;;;;;;15.85;38.33;100627.59;6157067;22;98277;-92
2022/02/23 10:29:48;;;;;;;11.90;2.95;;;;;;;15.96;38.41;100650.88;6133667;22;96697;-90
2022/02/23 10:32:15;;;;;;;9.63;2.60;;;;;;;15.23;39.61;100650.06;6133706;22;96786;-93
2022/02/23 10:34:46;;;;;;;13.77;2.85;;;;;;;14.69;40.47;100629.69;6156114;22;100680;-87
2022/02/23 10:37:13;;;;;;;13.27;3.30;;;;;;;14.84;40.64;100641.31;6180748;22;98269;-86
2022/02/23 10:39:41;;;;;;;13.63;2.92;;;;;;;14.38;41.14;100650.44;6132031;22;97090;-86
2022/02/23 10:42:12;;;;;;;11.75;3.70;;;;;;;14.35;41.40;100658.50;6131089;22;96819;-87
2022/02/23 10:44:42;;;;;;;9.30;2.97;;;;;;;14.21;41.31;100646.75;6155441;22;97928;-82
2022/02/23 10:47:13;;;;;;;9.82;2.80;;;;;;;13.50;41.49;100637.50;6156147;22;97679;-85
2022/02/23 10:49:39;;;;;;;11.77;2.90;;;;;;;13.12;42.77;100610.88;6155634;22;96766;-86
2022/02/23 10:52:07;;;;;;;7.35;2.70;;;;;;;13.22;42.28;100643.00;6130502;22;97837;-79
2022/02/23 10:54:35;;;;;;;12.32;2.60;;;;;;;13.64;42.90;100661.50;6129514;22;97322;-81
2022/02/23 10:57:01;;;;;;;7.53;3.03;;;;;;;13.32;42.07;100637.31;6154204;22;98050;-81
2022/02/23 10:59:27;;;;;;;9.43;2.78;;;;;;;13.33;41.77;100665.41;6155342;22;96734;-81
2022/02/23 11:01:54;;;;;;;12.82;2.92;;;;;;;13.38;41.59;100657.31;6129909;22;96964;-81
2022/02/23 11:04:22;;;;;;;10.55;2.65;;;;;;;13.33;42.03;100661.91;6155913;22;97835;-80
2022/02/23 11:06:51;;;;;;;9.63;2.00;;;;;;;13.08;41.65;100654.06;6129878;22;101238;-80
2022/02/23 11:09:17;;;;;;;10.13;2.78;;;;;;;12.59;41.64;100640.13;6105437;22;97117;-80
2022/02/23 11:11:43;;;;;;;8.15;2.05;;;;;;;12.56;42.28;100672.69;6155029;22;97097;-80
2022/02/23 11:14:10;;;;;;;7.53;1.67;;;;;;;12.39;42.89;100682.97;6129972;22;101712;-81
2022/02/23 11:16:37;;;;;;;12.77;2.88;;;;;;;12.40;43.15;100682.09;6129456;22;101165;-81
2022/02/23 11:19:04;;;;;;;10.73;2.72;;;;;;;12.35;43.07;100663.81;6155069;22;96634;-80
2022/02/23 11:21:34;;;;;;;11.88;2.28;;;;;;;12.39;42.88;100685.63;6130107;22;96801;-83
2022/02/23 11:24:03;;;;;;;8.90;2.70;;;;;;;12.42;43.02;100698.66;6105250;22;101528;-84